sensor_id;sensor_type;location;lat;lon;timestamp;temperature;humidity
3752;DHT22;50827;47.014;7.652;2023-09-07T00:00:15;20.10;99.90
3752;DHT22;50827;47.014;7.652;2023-09-07T00:02:42;20.00;99.90
3752;DHT22;50827;47.014;7.652;2023-09-07T00:05:09;19.90;99.90
3752;DHT22;50827;47.014;7.652;2023-09-07T00:07:36;19.90;99.90
3752;DHT22;50827;47.014;7.652;2023-09-07T00:10:03;20.00;99.90
3752;DHT22;50827;47.014;7.652;2023-09-07T00:12:31;20.00;99.90
3752;DHT22;50827;47.014;7.652;2023-09-07T00:14:58;20.00;99.90
3752;DHT22;50827;47.014;7.652;2023-09-07T00:17:25;19.90;99.90
3752;DHT22;50827;47.014;7.652;2023-09-07T00:19:52;19.90;99.90
3752;DHT22;50827;47.014;7.652;2023-09-07T00:22:19;19.90;99.90
3752;DHT22;50827;47.014;7.652;2023-09-07T00:24:45;19.90;99.90
3752;DHT22;50827;47.014;7.652;2023-09-07T00:27:12;19.80;99.90
3752;DHT22;50827;47.014;7.652;2023-09-07T00:29:39;19.90;99.90
3752;DHT22;50827;47.014;7.652;2023-09-07T00:32:06;19.90;99.90
3752;DHT22;50827;47.014;7.652;2023-09-07T00:34:33;19.90;99.90
3752;DHT22;50827;47.014;7.652;2023-09-07T00:37:01;19.90;99.90
3752;DHT22;50827;47.014;7.652;2023-09-07T00:39:28;19.80;99.90
3752;DHT22;50827;47.014;7.652;2023-09-07T00:41:55;19.80;99.90
3752;DHT22;50827;47.014;7.652;2023-09-07T00:44:21;19.70;99.90
3752;DHT22;50827;47.014;7.652;2023-09-07T00:46:48;19.80;99.90
3752;DHT22;50827;47.014;7.652;2023-09-07T00:49:15;19.70;99.90
3752;DHT22;50827;47.014;7.652;2023-09-07T00:51:42;19.70;99.90
3752;DHT22;50827;47.014;7.652;2023-09-07T00:54:08;19.50;99.90
3752;DHT22;50827;47.014;7.652;2023-09-07T00:56:38;19.50;99.90
3752;DHT22;50827;47.014;7.652;2023-09-07T00:59:06;19.40;99.90
3752;DHT22;50827;47.014;7.652;2023-09-07T01:01:35;19.40;99.90
3752;DHT22;50827;47.014;7.652;2023-09-07T01:04:08;19.30;99.90
3752;DHT22;50827;47.014;7.652;2023-09-07T01:06:43;19.30;99.90
3752;DHT22;50827;47.014;7.652;2023-09-07T01:09:17;19.20;99.90
3752;DHT22;50827;47.014;7.652;2023-09-07T01:11:45;19.20;99.90
3752;DHT22;50827;47.014;7.652;2023-09-07T01:14:12;19.20;99.90
3752;DHT22;50827;47.014;7.652;2023-09-07T01:16:39;19.20;99.90
3752;DHT22;50827;47.014;7.652;2023-09-07T01:19:09;19.20;99.90
3752;DHT22;50827;47.014;7.652;2023-09-07T01:21:38;19.20;99.90
3752;DHT22;50827;47.014;7.652;2023-09-07T01:24:07;19.20;99.90
3752;DHT22;50827;47.014;7.652;2023-09-07T01:26:38;19.20;99.90
3752;DHT22;50827;47.014;7.652;2023-09-07T01:29:08;19.20;99.90
3752;DHT22;50827;47.014;7.652;2023-09-07T01:31:38;19.10;99.90
3752;DHT22;50827;47.014;7.652;2023-09-07T01:34:06;19.10;99.90
3752;DHT22;50827;47.014;7.652;2023-09-07T01:36:38;19.10;99.90
3752;DHT22;50827;47.014;7.652;2023-09-07T01:39:08;19.00;99.90
3752;DHT22;50827;47.014;7.652;2023-09-07T01:41:38;19.10;99.90
3752;DHT22;50827;47.014;7.652;2023-09-07T01:44:08;19.10;99.90
3752;DHT22;50827;47.014;7.652;2023-09-07T01:46:37;19.10;99.90
3752;DHT22;50827;47.014;7.652;2023-09-07T01:49:04;19.10;99.90
3752;DHT22;50827;47.014;7.652;2023-09-07T01:51:31;19.00;99.90
3752;DHT22;50827;47.014;7.652;2023-09-07T01:53:58;19.00;99.90
3752;DHT22;50827;47.014;7.652;2023-09-07T01:56:25;19.00;99.90
3752;DHT22;50827;47.014;7.652;2023-09-07T01:58:52;19.00;99.90
3752;DHT22;50827;47.014;7.652;2023-09-07T02:01:31;19.00;99.90
3752;DHT22;50827;47.014;7.652;2023-09-07T02:03:58;19.00;99.90
3752;DHT22;50827;47.014;7.652;2023-09-07T02:06:24;19.00;99.90
3752;DHT22;50827;47.014;7.652;2023-09-07T02:08:51;19.00;99.90
3752;DHT22;50827;47.014;7.652;2023-09-07T02:11:18;18.90;99.90
3752;DHT22;50827;47.014;7.652;2023-09-07T02:13:46;18.90;99.90
3752;DHT22;50827;47.014;7.652;2023-09-07T02:16:14;18.90;99.90
3752;DHT22;50827;47.014;7.652;2023-09-07T02:18:42;18.80;99.90
3752;DHT22;50827;47.014;7.652;2023-09-07T02:21:13;18.80;99.90
3752;DHT22;50827;47.014;7.652;2023-09-07T02:23:40;18.80;99.90
3752;DHT22;50827;47.014;7.652;2023-09-07T02:26:07;18.80;99.90
3752;DHT22;50827;47.014;7.652;2023-09-07T02:28:37;18.80;99.90
3752;DHT22;50827;47.014;7.652;2023-09-07T02:31:07;18.80;99.90
3752;DHT22;50827;47.014;7.652;2023-09-07T02:33:37;18.80;99.90
3752;DHT22;50827;47.014;7.652;2023-09-07T02:36:04;18.90;99.90
3752;DHT22;50827;47.014;7.652;2023-09-07T02:38:34;18.80;99.90
3752;DHT22;50827;47.014;7.652;2023-09-07T02:41:03;18.90;99.90
3752;DHT22;50827;47.014;7.652;2023-09-07T02:43:32;18.80;99.90
3752;DHT22;50827;47.014;7.652;2023-09-07T02:45:58;18.80;99.90
3752;DHT22;50827;47.014;7.652;2023-09-07T02:48:25;18.80;99.90
3752;DHT22;50827;47.014;7.652;2023-09-07T02:50:52;18.90;99.90
3752;DHT22;50827;47.014;7.652;2023-09-07T02:53:19;18.80;99.90
3752;DHT22;50827;47.014;7.652;2023-09-07T02:55:45;18.80;99.90
3752;DHT22;50827;47.014;7.652;2023-09-07T02:58:12;18.70;99.90
3752;DHT22;50827;47.014;7.652;2023-09-07T03:00:45;18.70;99.90
3752;DHT22;50827;47.014;7.652;2023-09-07T03:03:14;18.80;99.90
3752;DHT22;50827;47.014;7.652;2023-09-07T03:05:41;18.70;99.90
3752;DHT22;50827;47.014;7.652;2023-09-07T03:08:09;18.70;99.90
3752;DHT22;50827;47.014;7.652;2023-09-07T03:10:38;18.70;99.90
3752;DHT22;50827;47.014;7.652;2023-09-07T03:13:07;18.70;99.90
3752;DHT22;50827;47.014;7.652;2023-09-07T03:15:34;18.70;99.90
3752;DHT22;50827;47.014;7.652;2023-09-07T03:18:04;18.70;99.90
3752;DHT22;50827;47.014;7.652;2023-09-07T03:20:33;18.70;99.90
3752;DHT22;50827;47.014;7.652;2023-09-07T03:23:01;18.70;99.90
3752;DHT22;50827;47.014;7.652;2023-09-07T03:25:28;18.60;99.90
3752;DHT22;50827;47.014;7.652;2023-09-07T03:27:55;18.60;99.90
3752;DHT22;50827;47.014;7.652;2023-09-07T03:30:21;18.60;99.90
3752;DHT22;50827;47.014;7.652;2023-09-07T03:32:48;18.50;99.90
3752;DHT22;50827;47.014;7.652;2023-09-07T03:35:15;18.50;99.90
3752;DHT22;50827;47.014;7.652;2023-09-07T03:37:43;18.50;99.90
3752;DHT22;50827;47.014;7.652;2023-09-07T03:40:10;18.40;99.90
3752;DHT22;50827;47.014;7.652;2023-09-07T03:42:36;18.40;99.90
3752;DHT22;50827;47.014;7.652;2023-09-07T03:45:04;18.30;99.90
3752;DHT22;50827;47.014;7.652;2023-09-07T03:47:31;18.30;99.90
3752;DHT22;50827;47.014;7.652;2023-09-07T03:49:58;18.30;99.90
3752;DHT22;50827;47.014;7.652;2023-09-07T03:52:25;18.30;99.90
3752;DHT22;50827;47.014;7.652;2023-09-07T03:54:56;18.30;99.90
3752;DHT22;50827;47.014;7.652;2023-09-07T03:57:24;18.30;99.90
3752;DHT22;50827;47.014;7.652;2023-09-07T03:59:52;18.20;99.90
3752;DHT22;50827;47.014;7.652;2023-09-07T04:02:18;18.20;99.90
3752;DHT22;50827;47.014;7.652;2023-09-07T04:04:50;18.20;99.90
3752;DHT22;50827;47.014;7.652;2023-09-07T04:07:17;18.10;99.90
3752;DHT22;50827;47.014;7.652;2023-09-07T04:09:45;18.10;99.90
3752;DHT22;50827;47.014;7.652;2023-09-07T04:12:12;18.00;99.90
3752;DHT22;50827;47.014;7.652;2023-09-07T04:14:39;18.10;99.90
3752;DHT22;50827;47.014;7.652;2023-09-07T04:17:09;18.10;99.90
3752;DHT22;50827;47.014;7.652;2023-09-07T04:19:36;18.10;99.90
3752;DHT22;50827;47.014;7.652;2023-09-07T04:22:03;18.00;99.90
3752;DHT22;50827;47.014;7.652;2023-09-07T04:24:29;18.00;99.90
3752;DHT22;50827;47.014;7.652;2023-09-07T04:27:00;18.10;99.90
3752;DHT22;50827;47.014;7.652;2023-09-07T04:29:28;18.10;99.90
3752;DHT22;50827;47.014;7.652;2023-09-07T04:31:54;18.10;99.90
3752;DHT22;50827;47.014;7.652;2023-09-07T04:34:22;18.10;99.90
3752;DHT22;50827;47.014;7.652;2023-09-07T04:36:48;18.10;99.90
3752;DHT22;50827;47.014;7.652;2023-09-07T04:39:15;18.10;99.90
3752;DHT22;50827;47.014;7.652;2023-09-07T04:41:42;18.10;99.90
3752;DHT22;50827;47.014;7.652;2023-09-07T04:44:09;18.10;99.90
3752;DHT22;50827;47.014;7.652;2023-09-07T04:46:36;18.00;99.90
3752;DHT22;50827;47.014;7.652;2023-09-07T04:49:06;18.10;99.90
3752;DHT22;50827;47.014;7.652;2023-09-07T04:51:35;18.10;99.90
3752;DHT22;50827;47.014;7.652;2023-09-07T04:54:02;18.10;99.90
3752;DHT22;50827;47.014;7.652;2023-09-07T04:56:28;18.10;99.90
3752;DHT22;50827;47.014;7.652;2023-09-07T04:58:55;18.10;99.90
3752;DHT22;50827;47.014;7.652;2023-09-07T05:01:22;18.10;99.90
3752;DHT22;50827;47.014;7.652;2023-09-07T05:03:49;18.10;99.90
3752;DHT22;50827;47.014;7.652;2023-09-07T05:06:17;18.10;99.90
3752;DHT22;50827;47.014;7.652;2023-09-07T05:08:44;18.10;99.90
3752;DHT22;50827;47.014;7.652;2023-09-07T05:11:11;18.10;99.90
3752;DHT22;50827;47.014;7.652;2023-09-07T05:13:38;18.00;99.90
3752;DHT22;50827;47.014;7.652;2023-09-07T05:16:07;18.00;99.90
3752;DHT22;50827;47.014;7.652;2023-09-07T05:18:34;18.00;99.90
3752;DHT22;50827;47.014;7.652;2023-09-07T05:21:11;17.90;99.90
3752;DHT22;50827;47.014;7.652;2023-09-07T05:23:38;17.80;99.90
3752;DHT22;50827;47.014;7.652;2023-09-07T05:26:07;17.90;99.90
3752;DHT22;50827;47.014;7.652;2023-09-07T05:28:34;17.80;99.90
3752;DHT22;50827;47.014;7.652;2023-09-07T05:31:03;17.80;99.90
3752;DHT22;50827;47.014;7.652;2023-09-07T05:33:32;17.80;99.90
3752;DHT22;50827;47.014;7.652;2023-09-07T05:35:58;17.90;99.90
3752;DHT22;50827;47.014;7.652;2023-09-07T05:38:25;17.90;99.90
3752;DHT22;50827;47.014;7.652;2023-09-07T05:40:52;17.90;99.90
3752;DHT22;50827;47.014;7.652;2023-09-07T05:43:21;17.90;99.90
3752;DHT22;50827;47.014;7.652;2023-09-07T05:45:47;18.00;99.90
3752;DHT22;50827;47.014;7.652;2023-09-07T05:48:14;18.00;99.90
3752;DHT22;50827;47.014;7.652;2023-09-07T05:50:45;18.00;99.90
3752;DHT22;50827;47.014;7.652;2023-09-07T05:53:12;18.10;99.90
3752;DHT22;50827;47.014;7.652;2023-09-07T05:55:38;18.10;99.90
3752;DHT22;50827;47.014;7.652;2023-09-07T05:58:07;18.10;99.90
3752;DHT22;50827;47.014;7.652;2023-09-07T06:00:37;18.10;99.90
3752;DHT22;50827;47.014;7.652;2023-09-07T06:03:09;18.10;99.90
3752;DHT22;50827;47.014;7.652;2023-09-07T06:05:37;18.10;99.90
3752;DHT22;50827;47.014;7.652;2023-09-07T06:08:08;18.20;99.90
3752;DHT22;50827;47.014;7.652;2023-09-07T06:10:35;18.20;99.90
3752;DHT22;50827;47.014;7.652;2023-09-07T06:13:02;18.20;99.90
3752;DHT22;50827;47.014;7.652;2023-09-07T06:15:30;18.30;99.90
3752;DHT22;50827;47.014;7.652;2023-09-07T06:17:57;18.40;99.90
3752;DHT22;50827;47.014;7.652;2023-09-07T06:20:24;18.40;99.90
3752;DHT22;50827;47.014;7.652;2023-09-07T06:22:51;18.40;99.90
3752;DHT22;50827;47.014;7.652;2023-09-07T06:25:18;18.50;99.90
3752;DHT22;50827;47.014;7.652;2023-09-07T06:27:45;18.50;99.90
3752;DHT22;50827;47.014;7.652;2023-09-07T06:30:12;18.60;99.90
3752;DHT22;50827;47.014;7.652;2023-09-07T06:32:38;18.60;99.90
3752;DHT22;50827;47.014;7.652;2023-09-07T06:35:07;18.60;99.90
3752;DHT22;50827;47.014;7.652;2023-09-07T06:37:34;18.70;99.90
3752;DHT22;50827;47.014;7.652;2023-09-07T06:40:02;18.70;99.90
3752;DHT22;50827;47.014;7.652;2023-09-07T06:42:32;18.80;99.90
3752;DHT22;50827;47.014;7.652;2023-09-07T06:44:58;18.80;99.90
3752;DHT22;50827;47.014;7.652;2023-09-07T06:47:25;18.90;99.90
3752;DHT22;50827;47.014;7.652;2023-09-07T06:49:56;19.00;99.90
3752;DHT22;50827;47.014;7.652;2023-09-07T06:52:22;19.00;99.90
3752;DHT22;50827;47.014;7.652;2023-09-07T06:54:55;19.10;99.90
3752;DHT22;50827;47.014;7.652;2023-09-07T06:57:22;19.10;99.90
3752;DHT22;50827;47.014;7.652;2023-09-07T06:59:49;19.20;99.90
3752;DHT22;50827;47.014;7.652;2023-09-07T07:02:16;19.20;99.90
3752;DHT22;50827;47.014;7.652;2023-09-07T07:04:43;19.30;99.90
3752;DHT22;50827;47.014;7.652;2023-09-07T07:07:12;19.40;99.90
3752;DHT22;50827;47.014;7.652;2023-09-07T07:09:39;19.50;99.90
3752;DHT22;50827;47.014;7.652;2023-09-07T07:12:08;19.50;99.90
3752;DHT22;50827;47.014;7.652;2023-09-07T07:14:38;19.60;99.90
3752;DHT22;50827;47.014;7.652;2023-09-07T07:17:08;19.60;99.90
3752;DHT22;50827;47.014;7.652;2023-09-07T07:19:38;19.70;99.90
3752;DHT22;50827;47.014;7.652;2023-09-07T07:22:06;19.70;99.90
3752;DHT22;50827;47.014;7.652;2023-09-07T07:24:38;19.80;99.90
3752;DHT22;50827;47.014;7.652;2023-09-07T07:27:07;19.80;99.90
3752;DHT22;50827;47.014;7.652;2023-09-07T07:29:38;19.80;99.90
3752;DHT22;50827;47.014;7.652;2023-09-07T07:32:05;19.90;99.90
3752;DHT22;50827;47.014;7.652;2023-09-07T07:34:37;20.00;99.90
3752;DHT22;50827;47.014;7.652;2023-09-07T07:37:04;20.00;99.90
3752;DHT22;50827;47.014;7.652;2023-09-07T07:39:33;20.10;99.90
3752;DHT22;50827;47.014;7.652;2023-09-07T07:42:00;20.10;99.90
3752;DHT22;50827;47.014;7.652;2023-09-07T07:44:27;20.20;99.90
3752;DHT22;50827;47.014;7.652;2023-09-07T07:46:54;20.20;99.90
3752;DHT22;50827;47.014;7.652;2023-09-07T07:49:20;20.30;99.90
3752;DHT22;50827;47.014;7.652;2023-09-07T07:51:47;20.30;99.90
3752;DHT22;50827;47.014;7.652;2023-09-07T07:54:14;20.40;99.90
3752;DHT22;50827;47.014;7.652;2023-09-07T07:56:41;20.40;99.90
3752;DHT22;50827;47.014;7.652;2023-09-07T07:59:08;20.50;99.90
3752;DHT22;50827;47.014;7.652;2023-09-07T08:01:35;20.50;99.90
3752;DHT22;50827;47.014;7.652;2023-09-07T08:04:03;20.60;99.90
3752;DHT22;50827;47.014;7.652;2023-09-07T08:06:30;20.60;99.90
3752;DHT22;50827;47.014;7.652;2023-09-07T08:08:57;20.70;99.90
3752;DHT22;50827;47.014;7.652;2023-09-07T08:11:24;20.80;99.90
3752;DHT22;50827;47.014;7.652;2023-09-07T08:13:52;20.80;99.90
3752;DHT22;50827;47.014;7.652;2023-09-07T08:16:19;20.90;99.90
3752;DHT22;50827;47.014;7.652;2023-09-07T08:18:46;21.00;99.90
3752;DHT22;50827;47.014;7.652;2023-09-07T08:21:14;21.00;99.90
3752;DHT22;50827;47.014;7.652;2023-09-07T08:23:41;21.10;99.90
3752;DHT22;50827;47.014;7.652;2023-09-07T08:26:07;21.10;99.90
3752;DHT22;50827;47.014;7.652;2023-09-07T08:28:36;21.20;99.90
3752;DHT22;50827;47.014;7.652;2023-09-07T08:31:05;21.30;99.90
3752;DHT22;50827;47.014;7.652;2023-09-07T08:33:37;21.30;99.90
3752;DHT22;50827;47.014;7.652;2023-09-07T08:36:07;21.40;99.90
3752;DHT22;50827;47.014;7.652;2023-09-07T08:38:37;21.50;99.90
3752;DHT22;50827;47.014;7.652;2023-09-07T08:41:12;21.60;99.90
3752;DHT22;50827;47.014;7.652;2023-09-07T08:43:45;21.50;99.90
3752;DHT22;50827;47.014;7.652;2023-09-07T08:46:18;21.60;99.90
3752;DHT22;50827;47.014;7.652;2023-09-07T08:48:49;21.70;99.90
3752;DHT22;50827;47.014;7.652;2023-09-07T08:51:18;21.80;99.90
3752;DHT22;50827;47.014;7.652;2023-09-07T08:53:45;21.80;99.90
3752;DHT22;50827;47.014;7.652;2023-09-07T08:56:13;21.90;99.90
3752;DHT22;50827;47.014;7.652;2023-09-07T08:58:42;21.90;99.90
3752;DHT22;50827;47.014;7.652;2023-09-07T09:01:08;22.00;99.90
3752;DHT22;50827;47.014;7.652;2023-09-07T09:03:36;22.10;99.90
3752;DHT22;50827;47.014;7.652;2023-09-07T09:06:04;22.10;99.90
3752;DHT22;50827;47.014;7.652;2023-09-07T09:08:50;22.20;99.90
3752;DHT22;50827;47.014;7.652;2023-09-07T09:11:18;22.20;99.90
3752;DHT22;50827;47.014;7.652;2023-09-07T09:13:45;22.30;99.90
3752;DHT22;50827;47.014;7.652;2023-09-07T09:16:13;22.40;99.90
3752;DHT22;50827;47.014;7.652;2023-09-07T09:18:50;22.40;99.90
3752;DHT22;50827;47.014;7.652;2023-09-07T09:21:21;22.40;99.90
3752;DHT22;50827;47.014;7.652;2023-09-07T09:23:49;22.60;99.90
3752;DHT22;50827;47.014;7.652;2023-09-07T09:26:17;22.60;99.90
3752;DHT22;50827;47.014;7.652;2023-09-07T09:28:44;22.70;99.90
3752;DHT22;50827;47.014;7.652;2023-09-07T09:31:12;22.70;99.90
3752;DHT22;50827;47.014;7.652;2023-09-07T09:33:40;22.70;99.90
3752;DHT22;50827;47.014;7.652;2023-09-07T09:36:08;22.80;99.90
3752;DHT22;50827;47.014;7.652;2023-09-07T09:38:35;22.90;99.90
3752;DHT22;50827;47.014;7.652;2023-09-07T09:41:04;23.00;99.90
3752;DHT22;50827;47.014;7.652;2023-09-07T09:43:34;23.00;99.90
3752;DHT22;50827;47.014;7.652;2023-09-07T09:46:04;23.10;99.90
3752;DHT22;50827;47.014;7.652;2023-09-07T09:48:38;23.20;99.90
3752;DHT22;50827;47.014;7.652;2023-09-07T09:51:07;23.20;99.90
3752;DHT22;50827;47.014;7.652;2023-09-07T09:53:38;23.20;99.90
3752;DHT22;50827;47.014;7.652;2023-09-07T09:56:05;23.30;99.90
3752;DHT22;50827;47.014;7.652;2023-09-07T09:58:35;23.40;99.90
3752;DHT22;50827;47.014;7.652;2023-09-07T10:01:02;23.40;99.90
3752;DHT22;50827;47.014;7.652;2023-09-07T10:03:33;23.50;99.90
3752;DHT22;50827;47.014;7.652;2023-09-07T10:06:22;23.50;99.90
3752;DHT22;50827;47.014;7.652;2023-09-07T10:09:06;23.70;99.90
3752;DHT22;50827;47.014;7.652;2023-09-07T10:11:35;23.70;99.90
3752;DHT22;50827;47.014;7.652;2023-09-07T10:14:08;23.80;99.90
3752;DHT22;50827;47.014;7.652;2023-09-07T10:16:45;23.80;99.90
3752;DHT22;50827;47.014;7.652;2023-09-07T10:19:17;23.80;99.90
3752;DHT22;50827;47.014;7.652;2023-09-07T10:21:44;23.80;99.90
3752;DHT22;50827;47.014;7.652;2023-09-07T10:24:11;23.90;99.90
3752;DHT22;50827;47.014;7.652;2023-09-07T10:26:38;24.00;99.90
3752;DHT22;50827;47.014;7.652;2023-09-07T10:29:05;24.00;99.90
3752;DHT22;50827;47.014;7.652;2023-09-07T10:31:37;24.00;99.90
3752;DHT22;50827;47.014;7.652;2023-09-07T10:34:20;24.10;99.90
3752;DHT22;50827;47.014;7.652;2023-09-07T10:36:48;24.20;99.90
3752;DHT22;50827;47.014;7.652;2023-09-07T10:39:22;24.20;99.90
3752;DHT22;50827;47.014;7.652;2023-09-07T10:41:48;24.30;99.90
3752;DHT22;50827;47.014;7.652;2023-09-07T10:44:15;24.40;99.90
3752;DHT22;50827;47.014;7.652;2023-09-07T10:46:42;24.40;99.90
3752;DHT22;50827;47.014;7.652;2023-09-07T10:49:11;24.40;99.90
3752;DHT22;50827;47.014;7.652;2023-09-07T10:51:45;24.50;99.90
3752;DHT22;50827;47.014;7.652;2023-09-07T10:54:17;24.60;99.90
3752;DHT22;50827;47.014;7.652;2023-09-07T10:56:45;24.60;99.90
3752;DHT22;50827;47.014;7.652;2023-09-07T10:59:16;24.60;99.90
3752;DHT22;50827;47.014;7.652;2023-09-07T11:01:46;24.70;99.90
3752;DHT22;50827;47.014;7.652;2023-09-07T11:04:15;24.70;99.90
3752;DHT22;50827;47.014;7.652;2023-09-07T11:06:44;24.80;99.90
3752;DHT22;50827;47.014;7.652;2023-09-07T11:09:11;24.80;99.90
3752;DHT22;50827;47.014;7.652;2023-09-07T11:11:38;24.90;99.90
3752;DHT22;50827;47.014;7.652;2023-09-07T11:14:06;24.90;99.90
3752;DHT22;50827;47.014;7.652;2023-09-07T11:16:33;25.00;99.90
3752;DHT22;50827;47.014;7.652;2023-09-07T11:19:06;25.00;99.90
3752;DHT22;50827;47.014;7.652;2023-09-07T11:21:36;25.10;99.90
3752;DHT22;50827;47.014;7.652;2023-09-07T11:24:03;25.10;99.90
3752;DHT22;50827;47.014;7.652;2023-09-07T11:26:43;25.10;99.90
3752;DHT22;50827;47.014;7.652;2023-09-07T11:29:13;25.20;99.90
3752;DHT22;50827;47.014;7.652;2023-09-07T11:31:39;25.20;99.90
3752;DHT22;50827;47.014;7.652;2023-09-07T11:34:14;25.30;99.90
3752;DHT22;50827;47.014;7.652;2023-09-07T11:36:41;25.30;99.90
3752;DHT22;50827;47.014;7.652;2023-09-07T11:39:08;25.40;99.90
3752;DHT22;50827;47.014;7.652;2023-09-07T11:41:43;25.40;99.90
3752;DHT22;50827;47.014;7.652;2023-09-07T11:44:11;25.50;99.90
3752;DHT22;50827;47.014;7.652;2023-09-07T11:46:40;25.50;99.90
3752;DHT22;50827;47.014;7.652;2023-09-07T11:49:07;25.60;99.90
3752;DHT22;50827;47.014;7.652;2023-09-07T11:51:36;25.60;99.90
3752;DHT22;50827;47.014;7.652;2023-09-07T11:54:04;25.70;99.90
3752;DHT22;50827;47.014;7.652;2023-09-07T11:56:33;25.70;99.90
3752;DHT22;50827;47.014;7.652;2023-09-07T11:59:07;25.80;99.90
3752;DHT22;50827;47.014;7.652;2023-09-07T12:01:36;25.80;99.90
3752;DHT22;50827;47.014;7.652;2023-09-07T12:04:06;25.90;99.90
3752;DHT22;50827;47.014;7.652;2023-09-07T12:06:32;25.90;99.90
3752;DHT22;50827;47.014;7.652;2023-09-07T12:09:00;25.90;99.90
3752;DHT22;50827;47.014;7.652;2023-09-07T12:11:27;26.00;99.90
3752;DHT22;50827;47.014;7.652;2023-09-07T12:13:54;26.00;99.90
3752;DHT22;50827;47.014;7.652;2023-09-07T12:16:21;26.10;99.90
3752;DHT22;50827;47.014;7.652;2023-09-07T12:18:48;26.10;99.90
3752;DHT22;50827;47.014;7.652;2023-09-07T12:21:15;26.20;99.90
3752;DHT22;50827;47.014;7.652;2023-09-07T12:23:41;26.30;99.90
3752;DHT22;50827;47.014;7.652;2023-09-07T12:26:08;26.30;99.90
3752;DHT22;50827;47.014;7.652;2023-09-07T12:28:35;26.30;99.90
3752;DHT22;50827;47.014;7.652;2023-09-07T12:31:08;26.30;99.90
3752;DHT22;50827;47.014;7.652;2023-09-07T12:33:36;26.30;99.90
3752;DHT22;50827;47.014;7.652;2023-09-07T12:36:04;26.30;99.90
3752;DHT22;50827;47.014;7.652;2023-09-07T12:38:38;26.40;99.90
3752;DHT22;50827;47.014;7.652;2023-09-07T12:41:06;26.50;99.90
3752;DHT22;50827;47.014;7.652;2023-09-07T12:43:36;26.50;99.90
3752;DHT22;50827;47.014;7.652;2023-09-07T12:46:03;26.60;99.90
3752;DHT22;50827;47.014;7.652;2023-09-07T12:48:37;26.60;99.90
3752;DHT22;50827;47.014;7.652;2023-09-07T12:51:07;26.60;99.90
3752;DHT22;50827;47.014;7.652;2023-09-07T12:53:34;26.70;99.90
3752;DHT22;50827;47.014;7.652;2023-09-07T12:56:01;26.70;99.90
3752;DHT22;50827;47.014;7.652;2023-09-07T12:58:30;26.70;99.90
3752;DHT22;50827;47.014;7.652;2023-09-07T13:00:56;26.70;99.90
3752;DHT22;50827;47.014;7.652;2023-09-07T13:03:23;26.80;99.90
3752;DHT22;50827;47.014;7.652;2023-09-07T13:05:50;26.80;99.90
3752;DHT22;50827;47.014;7.652;2023-09-07T13:08:17;26.80;99.90
3752;DHT22;50827;47.014;7.652;2023-09-07T13:10:44;26.90;99.90
3752;DHT22;50827;47.014;7.652;2023-09-07T13:13:10;27.00;99.90
3752;DHT22;50827;47.014;7.652;2023-09-07T13:15:37;27.00;99.90
3752;DHT22;50827;47.014;7.652;2023-09-07T13:18:04;27.00;99.90
3752;DHT22;50827;47.014;7.652;2023-09-07T13:20:30;27.10;99.90
3752;DHT22;50827;47.014;7.652;2023-09-07T13:22:57;27.10;99.90
3752;DHT22;50827;47.014;7.652;2023-09-07T13:25:25;27.20;99.90
3752;DHT22;50827;47.014;7.652;2023-09-07T13:27:52;27.20;99.90
3752;DHT22;50827;47.014;7.652;2023-09-07T13:30:19;27.20;99.90
3752;DHT22;50827;47.014;7.652;2023-09-07T13:32:46;27.30;99.90
3752;DHT22;50827;47.014;7.652;2023-09-07T13:35:14;27.30;99.90
3752;DHT22;50827;47.014;7.652;2023-09-07T13:37:40;27.40;99.90
3752;DHT22;50827;47.014;7.652;2023-09-07T13:40:07;27.30;99.90
3752;DHT22;50827;47.014;7.652;2023-09-07T13:42:35;27.40;99.90
3752;DHT22;50827;47.014;7.652;2023-09-07T13:45:08;27.50;99.90
3752;DHT22;50827;47.014;7.652;2023-09-07T13:47:38;27.50;99.90
3752;DHT22;50827;47.014;7.652;2023-09-07T13:50:08;27.50;99.90
3752;DHT22;50827;47.014;7.652;2023-09-07T13:52:35;27.50;99.90
3752;DHT22;50827;47.014;7.652;2023-09-07T13:55:02;27.50;99.90
3752;DHT22;50827;47.014;7.652;2023-09-07T13:57:29;27.60;99.90
3752;DHT22;50827;47.014;7.652;2023-09-07T13:59:56;27.70;99.90
3752;DHT22;50827;47.014;7.652;2023-09-07T14:02:22;27.70;99.90
3752;DHT22;50827;47.014;7.652;2023-09-07T14:04:49;27.70;99.90
3752;DHT22;50827;47.014;7.652;2023-09-07T14:07:16;27.70;99.90
3752;DHT22;50827;47.014;7.652;2023-09-07T14:09:43;27.70;99.90
3752;DHT22;50827;47.014;7.652;2023-09-07T14:12:10;27.80;99.90
3752;DHT22;50827;47.014;7.652;2023-09-07T14:14:38;27.80;99.90
3752;DHT22;50827;47.014;7.652;2023-09-07T14:17:07;27.80;99.90
3752;DHT22;50827;47.014;7.652;2023-09-07T14:19:37;27.80;99.90
3752;DHT22;50827;47.014;7.652;2023-09-07T14:22:04;27.80;99.90
3752;DHT22;50827;47.014;7.652;2023-09-07T14:24:31;27.80;99.90
3752;DHT22;50827;47.014;7.652;2023-09-07T14:26:58;27.90;99.90
3752;DHT22;50827;47.014;7.652;2023-09-07T14:29:24;27.90;99.90
3752;DHT22;50827;47.014;7.652;2023-09-07T14:31:53;28.00;99.90
3752;DHT22;50827;47.014;7.652;2023-09-07T14:34:20;28.00;99.90
3752;DHT22;50827;47.014;7.652;2023-09-07T14:36:46;28.00;99.90
3752;DHT22;50827;47.014;7.652;2023-09-07T14:39:14;28.00;99.90
3752;DHT22;50827;47.014;7.652;2023-09-07T14:41:42;28.10;99.90
3752;DHT22;50827;47.014;7.652;2023-09-07T14:44:09;28.10;99.90
3752;DHT22;50827;47.014;7.652;2023-09-07T14:46:36;28.10;99.90
3752;DHT22;50827;47.014;7.652;2023-09-07T14:49:03;28.10;99.90
3752;DHT22;50827;47.014;7.652;2023-09-07T14:51:30;28.10;99.90
3752;DHT22;50827;47.014;7.652;2023-09-07T14:53:56;28.10;99.90
3752;DHT22;50827;47.014;7.652;2023-09-07T14:56:24;28.10;99.90
3752;DHT22;50827;47.014;7.652;2023-09-07T14:58:51;28.20;99.90
3752;DHT22;50827;47.014;7.652;2023-09-07T15:01:17;28.20;99.90
3752;DHT22;50827;47.014;7.652;2023-09-07T15:03:45;28.20;99.90
3752;DHT22;50827;47.014;7.652;2023-09-07T15:06:12;28.20;99.90
3752;DHT22;50827;47.014;7.652;2023-09-07T15:08:42;28.20;99.90
3752;DHT22;50827;47.014;7.652;2023-09-07T15:11:09;28.20;99.90
3752;DHT22;50827;47.014;7.652;2023-09-07T15:13:38;28.20;99.90
3752;DHT22;50827;47.014;7.652;2023-09-07T15:16:09;28.20;99.90
3752;DHT22;50827;47.014;7.652;2023-09-07T15:18:37;28.20;99.90
3752;DHT22;50827;47.014;7.652;2023-09-07T15:21:07;28.30;99.90
3752;DHT22;50827;47.014;7.652;2023-09-07T15:23:34;28.20;99.90
3752;DHT22;50827;47.014;7.652;2023-09-07T15:26:00;28.30;99.90
3752;DHT22;50827;47.014;7.652;2023-09-07T15:28:27;28.30;99.90
3752;DHT22;50827;47.014;7.652;2023-09-07T15:30:54;28.20;99.90
3752;DHT22;50827;47.014;7.652;2023-09-07T15:33:21;28.30;99.90
3752;DHT22;50827;47.014;7.652;2023-09-07T15:35:48;28.30;99.90
3752;DHT22;50827;47.014;7.652;2023-09-07T15:38:15;28.30;99.90
3752;DHT22;50827;47.014;7.652;2023-09-07T15:40:42;28.30;99.90
3752;DHT22;50827;47.014;7.652;2023-09-07T15:43:11;28.30;99.90
3752;DHT22;50827;47.014;7.652;2023-09-07T15:45:38;28.30;99.90
3752;DHT22;50827;47.014;7.652;2023-09-07T15:48:08;28.30;99.90
3752;DHT22;50827;47.014;7.652;2023-09-07T15:50:35;28.30;99.90